createdAt,value
2023-04-06T00:00:37.405Z,5.88
2023-04-06T00:03:17.814Z,6.07
2023-04-06T00:05:45.818Z,5.55
2023-04-06T00:08:12.740Z,6.30
2023-04-06T00:10:40.154Z,6.00
2023-04-06T00:13:08.614Z,5.88
2023-04-06T00:15:36.416Z,6.53
2023-04-06T00:18:03.765Z,6.43
2023-04-06T00:20:31.444Z,5.88
2023-04-06T00:22:58.576Z,6.43
2023-04-06T00:25:26.642Z,6.25
2023-04-06T00:27:53.706Z,5.57
2023-04-06T00:30:21.325Z,5.70
2023-04-06T00:32:48.273Z,6.55
2023-04-06T00:35:16.794Z,6.07
2023-04-06T00:37:43.653Z,4.65
2023-04-06T00:40:11.372Z,5.57
2023-04-06T00:42:38.704Z,5.22
2023-04-06T00:45:06.211Z,5.28
2023-04-06T00:47:34.255Z,5.75
2023-04-06T00:50:01.653Z,6.55
2023-04-06T00:52:29.166Z,5.95
2023-04-06T00:54:56.394Z,5.25
2023-04-06T00:57:23.615Z,6.13
2023-04-06T00:59:55.665Z,5.82
2023-04-06T01:02:23.443Z,5.63
2023-04-06T01:04:55.306Z,5.65
2023-04-06T01:07:28.292Z,5.13
2023-04-06T01:10:06.473Z,5.28
2023-04-06T01:12:35.664Z,5.32
2023-04-06T01:15:07.399Z,4.93
2023-04-06T01:17:39.293Z,5.72
2023-04-06T01:20:12.588Z,5.93
2023-04-06T01:22:39.792Z,5.32
2023-04-06T01:25:08.353Z,5.57
2023-04-06T01:27:44.218Z,6.18
2023-04-06T01:30:46.696Z,5.50
2023-04-06T01:33:32.107Z,5.57
2023-04-06T01:38:31.857Z,5.63
2023-04-06T01:40:59.254Z,5.10
2023-04-06T01:43:31.022Z,5.30
2023-04-06T01:46:03.739Z,4.40
2023-04-06T01:48:34.854Z,5.55
2023-04-06T01:51:09.110Z,4.90
2023-04-06T01:53:45.296Z,4.68
2023-04-06T01:56:13.312Z,4.53
2023-04-06T01:58:47.300Z,4.22
2023-04-06T02:01:17.504Z,4.15
2023-04-06T02:03:52.166Z,4.40
2023-04-06T02:06:20.126Z,4.38
2023-04-06T02:08:47.209Z,4.65
2023-04-06T02:11:14.637Z,4.18
2023-04-06T02:13:46.570Z,4.50
2023-04-06T02:16:14.244Z,4.50
2023-04-06T02:18:41.181Z,4.65
2023-04-06T02:21:08.702Z,4.10
2023-04-06T02:23:35.866Z,3.83
2023-04-06T02:26:03.485Z,4.35
2023-04-06T02:28:30.720Z,4.50
2023-04-06T02:30:57.922Z,4.57
2023-04-06T02:33:27.706Z,4.03
2023-04-06T02:35:55.091Z,4.15
2023-04-06T02:38:22.024Z,4.28
2023-04-06T02:40:49.452Z,4.03
2023-04-06T02:43:20.869Z,5.05
2023-04-06T02:45:50.559Z,4.70
2023-04-06T02:48:18.774Z,4.50
2023-04-06T02:50:46.083Z,4.32
2023-04-06T02:53:13.663Z,4.30
2023-04-06T02:55:41.135Z,4.72
2023-04-06T02:58:08.692Z,4.60
2023-04-06T03:00:45.755Z,6.65
2023-04-06T03:03:13.312Z,4.30
2023-04-06T03:05:41.896Z,5.25
2023-04-06T03:08:10.762Z,4.60
2023-04-06T03:10:45.945Z,6.10
2023-04-06T03:13:14.422Z,5.85
2023-04-06T03:15:51.002Z,6.55
2023-04-06T03:18:25.214Z,6.00
2023-04-06T03:20:55.110Z,5.88
2023-04-06T03:23:26.400Z,5.82
2023-04-06T03:25:58.632Z,6.22
2023-04-06T03:28:25.843Z,6.60
2023-04-06T03:30:59.418Z,6.32
2023-04-06T03:34:02.326Z,5.05
2023-04-06T03:36:36.288Z,5.82
2023-04-06T03:39:04.861Z,6.05
2023-04-06T03:41:35.590Z,6.13
2023-04-06T03:44:22.992Z,6.32
2023-04-06T03:46:50.418Z,6.55
2023-04-06T03:49:18.209Z,6.47
2023-04-06T03:51:49.059Z,5.57
2023-04-06T03:54:16.688Z,6.05
2023-04-06T03:56:43.916Z,6.65
2023-04-06T03:59:11.454Z,6.50
2023-04-06T04:01:40.366Z,6.28
2023-04-06T04:04:07.752Z,6.53
2023-04-06T04:06:34.944Z,6.00
2023-04-06T04:09:02.137Z,5.40
2023-04-06T04:11:29.311Z,6.63
2023-04-06T04:13:58.581Z,6.75
2023-04-06T04:16:25.923Z,6.18
2023-04-06T04:18:53.118Z,6.57
2023-04-06T04:21:20.300Z,5.78
2023-04-06T04:23:47.876Z,5.47
2023-04-06T04:26:15.050Z,6.07
2023-04-06T04:28:44.712Z,5.75
2023-04-06T04:31:12.401Z,5.82
2023-04-06T04:33:40.466Z,6.13
2023-04-06T04:36:13.248Z,6.18
2023-04-06T04:38:43.707Z,7.22
2023-04-06T04:41:12.024Z,6.20
2023-04-06T04:43:41.943Z,6.10
2023-04-06T04:46:09.365Z,5.82
2023-04-06T04:48:42.440Z,6.25
2023-04-06T04:51:09.856Z,5.88
2023-04-06T04:53:54.999Z,5.45
2023-04-06T04:56:26.836Z,5.35
2023-04-06T04:58:59.063Z,5.38
2023-04-06T05:01:29.181Z,7.43
2023-04-06T05:03:56.823Z,4.97
2023-04-06T05:06:24.229Z,5.60
2023-04-06T05:08:51.577Z,5.75
2023-04-06T05:11:19.143Z,6.07
2023-04-06T05:13:54.551Z,5.60
2023-04-06T05:16:25.214Z,5.38
2023-04-06T05:18:53.935Z,5.55
2023-04-06T05:21:21.371Z,4.97
2023-04-06T05:23:56.691Z,6.53
2023-04-06T05:26:25.186Z,6.00
2023-04-06T05:28:56.141Z,5.25
2023-04-06T05:31:24.180Z,4.88
2023-04-06T05:33:52.043Z,5.63
2023-04-06T05:36:30.081Z,5.53
2023-04-06T05:38:57.789Z,4.93
2023-04-06T05:41:35.706Z,5.30
2023-04-06T05:44:03.462Z,5.90
2023-04-06T05:46:31.970Z,5.82
2023-04-06T05:49:00.915Z,4.40
2023-04-06T05:51:32.377Z,3.97
2023-04-06T05:54:00.511Z,5.15
2023-04-06T05:56:28.884Z,4.70
2023-04-06T05:58:56.016Z,5.57
2023-04-06T06:01:28.571Z,5.57
2023-04-06T06:03:56.039Z,5.28
2023-04-06T06:06:28.949Z,5.15
2023-04-06T06:09:09.042Z,4.25
2023-04-06T06:11:43.227Z,5.18
2023-04-06T06:14:13.347Z,3.70
2023-04-06T06:16:42.633Z,4.43
2023-04-06T06:19:13.300Z,4.32
2023-04-06T06:21:41.000Z,4.03
2023-04-06T06:24:09.119Z,3.67
2023-04-06T06:26:38.336Z,3.85
2023-04-06T06:29:08.351Z,4.10
2023-04-06T06:31:39.065Z,4.15
2023-04-06T06:34:06.858Z,3.72
2023-04-06T06:36:37.353Z,3.78
2023-04-06T06:39:08.367Z,3.83
2023-04-06T06:41:36.717Z,2.80
2023-04-06T06:44:05.134Z,2.90
2023-04-06T06:46:33.123Z,3.25
2023-04-06T06:49:01.031Z,3.20
2023-04-06T06:51:28.272Z,2.60
2023-04-06T06:53:56.149Z,2.42
2023-04-06T06:56:23.260Z,2.80
2023-04-06T06:58:52.669Z,2.53
2023-04-06T07:01:20.478Z,2.65
2023-04-06T07:03:48.319Z,2.60
2023-04-06T07:06:16.280Z,3.10
2023-04-06T07:08:43.330Z,2.78
2023-04-06T07:11:11.259Z,2.80
2023-04-06T07:13:39.380Z,2.40
2023-04-06T07:16:06.911Z,2.80
2023-04-06T07:18:36.137Z,2.95
2023-04-06T07:21:04.402Z,2.38
2023-04-06T07:23:31.568Z,2.80
2023-04-06T07:25:58.868Z,2.65
2023-04-06T07:28:26.058Z,2.63
2023-04-06T07:30:56.141Z,2.72
2023-04-06T07:33:23.825Z,2.80
2023-04-06T07:35:53.789Z,2.85
2023-04-06T07:38:22.926Z,2.22
2023-04-06T07:40:52.053Z,2.67
2023-04-06T07:43:19.587Z,3.00
2023-04-06T07:45:47.111Z,2.67
2023-04-06T07:48:17.451Z,2.88
2023-04-06T07:50:46.774Z,2.65
2023-04-06T07:53:15.208Z,3.35
2023-04-06T07:55:44.085Z,3.40
2023-04-06T07:58:11.799Z,2.67
2023-04-06T08:00:39.313Z,3.08
2023-04-06T08:03:06.430Z,3.35
2023-04-06T08:05:34.054Z,3.03
2023-04-06T08:08:01.437Z,3.35
2023-04-06T08:10:29.183Z,3.25
2023-04-06T08:12:56.132Z,3.25
2023-04-06T08:15:23.519Z,3.15
2023-04-06T08:17:50.569Z,3.00
2023-04-06T08:20:18.232Z,3.33
2023-04-06T08:22:45.257Z,2.95
2023-04-06T08:25:12.996Z,3.22
2023-04-06T08:27:40.000Z,3.25
2023-04-06T08:30:08.345Z,2.80
2023-04-06T08:32:35.316Z,3.13
2023-04-06T08:35:02.940Z,2.92
2023-04-06T08:37:30.000Z,2.60
2023-04-06T08:39:58.553Z,2.55
2023-04-06T08:42:27.383Z,3.40
2023-04-06T08:44:56.918Z,2.75
2023-04-06T08:47:24.980Z,2.75
2023-04-06T08:49:54.771Z,3.17
2023-04-06T08:52:22.240Z,3.42
2023-04-06T08:54:49.785Z,2.80
2023-04-06T08:57:17.788Z,3.30
2023-04-06T08:59:46.506Z,2.85
2023-04-06T09:02:18.842Z,2.92
2023-04-06T09:04:49.387Z,2.72
2023-04-06T09:07:17.134Z,3.20
2023-04-06T09:09:48.838Z,3.17
2023-04-06T09:12:29.434Z,2.90
2023-04-06T09:14:58.855Z,3.25
2023-04-06T09:17:31.417Z,3.05
2023-04-06T09:19:59.419Z,3.60
2023-04-06T09:22:28.134Z,3.35
2023-04-06T09:24:55.978Z,2.95
2023-04-06T09:27:38.182Z,4.30
2023-04-06T09:30:14.066Z,3.50
2023-04-06T09:32:53.511Z,4.20
2023-04-06T09:35:22.226Z,3.38
2023-04-06T09:37:51.283Z,3.65
2023-04-06T09:40:20.207Z,3.88
2023-04-06T09:42:48.582Z,3.72
2023-04-06T09:45:15.914Z,4.00
2023-04-06T09:47:47.196Z,4.15
2023-04-06T09:50:17.105Z,3.97
2023-04-06T09:52:52.731Z,3.78
2023-04-06T09:55:41.261Z,4.50
2023-04-06T09:58:13.064Z,3.97
2023-04-06T10:01:03.009Z,4.90
2023-04-06T10:03:53.443Z,5.93
2023-04-06T10:06:24.202Z,6.47
2023-04-06T10:08:52.726Z,6.55
2023-04-06T10:11:20.337Z,6.53
2023-04-06T10:13:49.962Z,7.30
2023-04-06T10:16:18.701Z,6.35
2023-04-06T10:18:52.291Z,4.57
2023-04-06T10:21:29.050Z,5.80
2023-04-06T10:24:02.296Z,5.38
2023-04-06T10:26:29.826Z,4.40
2023-04-06T10:29:03.620Z,4.32
2023-04-06T10:31:31.143Z,3.90
2023-04-06T10:33:59.856Z,3.92
2023-04-06T10:36:29.692Z,3.95
2023-04-06T10:38:59.998Z,4.35
2023-04-06T10:41:34.255Z,4.13
2023-04-06T10:44:02.316Z,4.65
2023-04-06T10:46:31.586Z,4.85
2023-04-06T10:48:58.928Z,3.90
2023-04-06T10:51:28.967Z,4.47
2023-04-06T10:53:59.001Z,4.63
2023-04-06T10:56:29.020Z,4.40
2023-04-06T10:58:57.196Z,4.68
2023-04-06T11:01:29.049Z,5.00
2023-04-06T11:04:01.302Z,5.13
2023-04-06T11:06:31.731Z,4.93
2023-04-06T11:08:59.480Z,4.63
2023-04-06T11:11:28.186Z,5.22
2023-04-06T11:13:57.838Z,4.30
2023-04-06T11:16:27.819Z,4.55
2023-04-06T11:23:27.554Z,4.22
2023-04-06T11:25:55.306Z,4.70
2023-04-06T11:28:22.446Z,4.90
2023-04-06T11:30:50.119Z,5.00
2023-04-06T11:33:26.287Z,5.47
2023-04-06T11:35:57.941Z,5.45
2023-04-06T11:38:24.919Z,5.88
2023-04-06T11:40:55.518Z,5.72
2023-04-06T11:43:31.634Z,5.30
2023-04-06T11:46:04.889Z,4.90
2023-04-06T11:48:32.563Z,5.78
2023-04-06T11:51:06.032Z,5.93
2023-04-06T11:53:34.573Z,6.85
2023-04-06T11:56:02.017Z,6.82
2023-04-06T11:58:30.899Z,6.18
2023-04-06T12:01:05.040Z,6.63
2023-04-06T12:03:32.443Z,5.82
2023-04-06T12:05:59.955Z,6.15
2023-04-06T12:08:27.391Z,6.38
2023-04-06T12:10:55.001Z,6.35
2023-04-06T12:13:22.255Z,6.10
2023-04-06T12:15:51.682Z,6.65
2023-04-06T12:18:21.107Z,6.23
2023-04-06T12:20:48.601Z,6.88
2023-04-06T12:23:15.700Z,5.95
2023-04-06T12:25:43.777Z,6.65
2023-04-06T12:28:11.604Z,6.22
2023-04-06T12:30:39.468Z,7.10
2023-04-06T12:33:06.763Z,6.35
2023-04-06T12:35:38.407Z,7.40
2023-04-06T12:40:38.218Z,6.10
2023-04-06T12:43:05.769Z,6.38
2023-04-06T12:45:33.864Z,6.38
2023-04-06T12:48:01.311Z,6.57
2023-04-06T12:50:28.788Z,6.68
2023-04-06T12:52:56.305Z,6.00
2023-04-06T12:55:23.691Z,6.07
2023-04-06T12:57:51.263Z,6.10
2023-04-06T13:00:19.367Z,5.50
2023-04-06T13:02:48.426Z,5.20
2023-04-06T13:05:20.241Z,5.03
2023-04-06T13:07:48.295Z,4.80
2023-04-06T13:10:15.801Z,4.10
2023-04-06T13:12:43.838Z,4.68
2023-04-06T13:15:11.728Z,5.00
2023-04-06T13:17:39.375Z,5.07
2023-04-06T13:20:07.804Z,4.65
2023-04-06T13:22:34.801Z,5.28
2023-04-06T13:25:02.240Z,5.10
2023-04-06T13:27:29.644Z,4.32
2023-04-06T13:29:57.238Z,6.47
2023-04-06T13:32:24.561Z,5.30
2023-04-06T13:34:55.210Z,5.47
2023-04-06T13:37:22.463Z,6.28
2023-04-06T13:39:50.282Z,7.65
2023-04-06T13:42:17.414Z,6.88
2023-04-06T13:44:44.630Z,7.93
2023-04-06T13:47:11.984Z,8.05
2023-04-06T13:49:39.706Z,7.20
2023-04-06T13:52:07.054Z,6.60
2023-04-06T13:54:34.650Z,6.15
2023-04-06T13:57:02.368Z,6.10
2023-04-06T13:59:34.536Z,5.35
2023-04-06T14:02:10.641Z,5.97
2023-04-06T14:04:40.484Z,5.50
2023-04-06T14:07:10.054Z,6.00
2023-04-06T14:09:37.541Z,5.00
2023-04-06T14:12:04.684Z,5.50
2023-04-06T14:14:32.026Z,6.55
2023-04-06T14:16:59.252Z,6.10
2023-04-06T14:19:27.387Z,6.80
2023-04-06T14:21:54.646Z,6.20
2023-04-06T14:24:21.858Z,6.07
2023-04-06T14:26:49.051Z,6.47
2023-04-06T14:29:16.905Z,6.90
2023-04-06T14:31:47.199Z,6.80
2023-04-06T14:34:14.835Z,6.45
2023-04-06T14:36:41.931Z,5.93
2023-04-06T14:39:10.945Z,7.53
2023-04-06T14:41:38.284Z,6.53
2023-04-06T14:44:06.716Z,6.53
2023-04-06T14:46:33.888Z,6.57
2023-04-06T14:49:01.776Z,6.82
2023-04-06T14:51:29.094Z,6.20
2023-04-06T14:53:56.737Z,5.72
2023-04-06T14:56:24.894Z,5.82
2023-04-06T14:58:53.011Z,5.72
2023-04-06T15:01:21.930Z,5.68
2023-04-06T15:03:50.259Z,5.55
2023-04-06T15:06:20.502Z,6.38
2023-04-06T15:08:50.030Z,5.07
2023-04-06T15:11:17.279Z,5.93
2023-04-06T15:13:45.108Z,4.80
2023-04-06T15:16:12.525Z,4.97
2023-04-06T15:18:40.095Z,5.50
2023-04-06T15:21:08.107Z,5.55
2023-04-06T15:23:36.237Z,4.72
2023-04-06T15:26:03.529Z,5.47
2023-04-06T15:28:31.617Z,5.75
2023-04-06T15:30:58.628Z,5.47
2023-04-06T15:33:28.123Z,5.57
2023-04-06T15:35:55.915Z,5.95
2023-04-06T15:38:23.749Z,5.38
2023-04-06T15:40:50.789Z,5.82
2023-04-06T15:43:18.322Z,5.65
2023-04-06T15:45:45.480Z,6.05
2023-04-06T15:48:13.352Z,5.53
2023-04-06T15:50:40.523Z,5.55
2023-04-06T15:53:08.356Z,6.55
2023-04-06T15:55:35.698Z,5.22
2023-04-06T15:58:03.079Z,5.95
2023-04-06T16:00:30.209Z,5.28
2023-04-06T16:02:58.063Z,6.18
2023-04-06T16:05:28.332Z,5.78
2023-04-06T16:07:57.293Z,5.50
2023-04-06T16:10:24.659Z,5.95
2023-04-06T16:12:52.591Z,6.25
2023-04-06T16:15:19.674Z,6.13
2023-04-06T16:17:47.271Z,5.70
2023-04-06T16:20:16.114Z,6.10
2023-04-06T16:22:43.403Z,6.03
2023-04-06T16:25:11.630Z,5.90
2023-04-06T16:27:38.911Z,5.32
2023-04-06T16:30:06.709Z,6.50
2023-04-06T16:32:34.523Z,5.97
2023-04-06T16:35:03.344Z,5.80
2023-04-06T16:37:31.865Z,6.28
2023-04-06T16:39:59.600Z,5.95
2023-04-06T16:42:27.684Z,6.57
2023-04-06T16:44:54.967Z,6.10
2023-04-06T16:47:24.071Z,7.35
2023-04-06T16:49:52.372Z,5.97
2023-04-06T16:52:19.606Z,6.22
2023-04-06T16:54:46.934Z,6.45
2023-04-06T16:57:15.662Z,6.90
2023-04-06T16:59:42.827Z,6.78
2023-04-06T17:02:10.322Z,6.15
2023-04-06T17:04:37.767Z,6.47
2023-04-06T17:07:06.254Z,6.10
2023-04-06T17:12:06.644Z,7.03
2023-04-06T17:14:33.913Z,6.80
2023-04-06T17:17:02.469Z,7.13
2023-04-06T17:19:29.559Z,7.57
2023-04-06T17:21:57.531Z,7.50
2023-04-06T17:24:25.117Z,6.55
2023-04-06T17:26:52.266Z,7.10
2023-04-06T17:29:19.131Z,6.85
2023-04-06T17:31:46.428Z,7.45
2023-04-06T17:34:13.508Z,8.02
2023-04-06T17:36:41.107Z,7.95
2023-04-06T17:39:08.833Z,7.63
2023-04-06T17:41:36.856Z,8.27
2023-04-06T17:44:04.115Z,7.70
2023-04-06T17:46:32.108Z,6.80
2023-04-06T17:48:59.142Z,7.93
2023-04-06T17:51:27.426Z,6.85
2023-04-06T17:53:54.586Z,7.70
2023-04-06T17:56:22.240Z,8.50
2023-04-06T18:01:19.536Z,8.10
2023-04-06T18:03:46.562Z,8.35
2023-04-06T18:06:15.764Z,7.43
2023-04-06T18:08:43.437Z,7.63
2023-04-06T18:11:18.847Z,8.40
2023-04-06T18:13:46.490Z,7.22
2023-04-06T18:16:16.403Z,7.07
2023-04-06T18:18:43.682Z,8.07
2023-04-06T18:21:10.952Z,7.80
2023-04-06T18:23:38.413Z,8.38
2023-04-06T18:26:06.458Z,8.77
2023-04-06T18:28:34.224Z,8.32
2023-04-06T18:31:02.332Z,8.55
2023-04-06T18:33:29.457Z,7.85
2023-04-06T18:35:56.861Z,8.10
2023-04-06T18:38:24.357Z,8.80
2023-04-06T18:40:51.990Z,7.72
2023-04-06T18:43:19.378Z,8.20
2023-04-06T18:45:46.619Z,9.07
2023-04-06T18:48:14.120Z,8.32
2023-04-06T18:50:41.907Z,8.82
2023-04-06T18:53:08.839Z,7.90
2023-04-06T18:55:36.512Z,8.40
2023-04-06T18:58:03.833Z,8.27
2023-04-06T19:00:31.522Z,7.75
2023-04-06T19:02:58.983Z,8.25
2023-04-06T19:05:26.647Z,8.07
2023-04-06T19:07:53.468Z,8.18
2023-04-06T19:10:21.098Z,6.25
2023-04-06T19:12:48.990Z,7.50
2023-04-06T19:15:16.262Z,8.00
2023-04-06T19:17:43.291Z,7.53
2023-04-06T19:20:10.967Z,7.72
2023-04-06T19:22:38.216Z,7.68
2023-04-06T19:25:06.614Z,8.45
2023-04-06T19:27:33.914Z,8.23
2023-04-06T19:30:01.222Z,6.80
2023-04-06T19:32:30.314Z,7.82
2023-04-06T19:34:59.611Z,8.32
2023-04-06T19:37:26.815Z,8.30
2023-04-06T19:39:54.189Z,7.53
2023-04-06T19:42:21.836Z,8.00
2023-04-06T19:44:49.342Z,8.50
2023-04-06T19:47:16.372Z,7.68
2023-04-06T19:49:44.025Z,8.80
2023-04-06T19:52:12.503Z,7.53
2023-04-06T19:54:41.049Z,8.27
2023-04-06T19:57:08.252Z,6.85
2023-04-06T19:59:35.590Z,6.35
2023-04-06T20:02:02.687Z,7.15
2023-04-06T20:04:30.569Z,7.10
2023-04-06T20:06:57.916Z,6.25
2023-04-06T20:09:25.301Z,6.72
2023-04-06T20:11:54.211Z,6.85
2023-04-06T20:14:22.970Z,6.68
2023-04-06T20:16:50.997Z,7.93
2023-04-06T20:19:18.382Z,7.72
2023-04-06T20:21:45.401Z,7.50
2023-04-06T20:24:12.771Z,8.50
2023-04-06T20:26:40.172Z,8.35
2023-04-06T20:29:07.441Z,8.70
2023-04-06T20:31:34.673Z,8.50
2023-04-06T20:34:02.134Z,8.00
2023-04-06T20:36:32.521Z,9.40
2023-04-06T20:39:00.146Z,9.07
2023-04-06T20:41:26.991Z,8.82
2023-04-06T20:43:54.526Z,9.77
2023-04-06T20:46:21.770Z,9.82
2023-04-06T20:48:49.072Z,11.95
2023-04-06T20:51:21.276Z,10.63
2023-04-06T20:53:48.758Z,9.98
2023-04-06T20:56:15.814Z,9.80
2023-04-06T20:58:43.096Z,9.80
2023-04-06T21:01:17.396Z,11.10
2023-04-06T21:03:45.543Z,9.65
2023-04-06T21:06:12.734Z,11.68
2023-04-06T21:08:40.472Z,11.43
2023-04-06T21:11:07.631Z,11.38
2023-04-06T21:13:34.896Z,12.23
2023-04-06T21:16:03.247Z,11.65
2023-04-06T21:18:34.250Z,12.50
2023-04-06T21:21:01.504Z,12.27
2023-04-06T21:23:28.661Z,12.55
2023-04-06T21:25:57.422Z,14.02
2023-04-06T21:28:26.071Z,13.15
2023-04-06T21:30:54.841Z,14.35
2023-04-06T21:33:22.627Z,12.63
2023-04-06T21:35:50.325Z,14.10
2023-04-06T21:38:17.603Z,13.93
2023-04-06T21:40:45.052Z,15.68
2023-04-06T21:43:12.822Z,14.77
2023-04-06T21:45:40.282Z,13.70
2023-04-06T21:48:07.609Z,15.00
2023-04-06T21:50:39.506Z,15.80
2023-04-06T21:53:07.231Z,15.20
2023-04-06T21:55:34.208Z,15.90
2023-04-06T21:58:01.685Z,15.38
2023-04-06T22:00:28.458Z,15.20
2023-04-06T22:02:56.176Z,16.30
2023-04-06T22:05:23.744Z,15.68
2023-04-06T22:07:52.211Z,14.98
2023-04-06T22:10:19.785Z,16.15
2023-04-06T22:12:49.062Z,14.88
2023-04-06T22:15:16.585Z,15.23
2023-04-06T22:17:43.751Z,14.98
2023-04-06T22:20:11.252Z,15.60
2023-04-06T22:22:38.996Z,14.38
2023-04-06T22:25:06.542Z,15.15
2023-04-06T22:27:33.659Z,14.63
2023-04-06T22:30:00.626Z,15.60
2023-04-06T22:32:28.029Z,15.98
2023-04-06T22:34:55.448Z,15.77
2023-04-06T22:37:22.636Z,15.27
2023-04-06T22:39:49.484Z,14.90
2023-04-06T22:42:16.710Z,14.18
2023-04-06T22:44:43.582Z,14.57
2023-04-06T22:47:12.112Z,15.68
2023-04-06T22:49:39.422Z,14.65
2023-04-06T22:52:06.925Z,14.68
2023-04-06T22:54:34.199Z,14.02
2023-04-06T22:57:02.985Z,15.52
2023-04-06T22:59:29.941Z,14.30
2023-04-06T23:01:57.605Z,15.32
2023-04-06T23:04:24.716Z,15.43
2023-04-06T23:06:52.262Z,14.95
2023-04-06T23:09:19.132Z,14.38
2023-04-06T23:11:46.788Z,14.00
2023-04-06T23:14:13.947Z,15.10
2023-04-06T23:16:41.610Z,13.95
2023-04-06T23:19:08.525Z,14.77
2023-04-06T23:21:36.181Z,15.52
2023-04-06T23:24:03.306Z,15.68
2023-04-06T23:26:31.076Z,14.77
2023-04-06T23:28:57.962Z,15.02
2023-04-06T23:31:25.213Z,15.95
2023-04-06T23:33:52.327Z,15.30
2023-04-06T23:36:19.477Z,15.18
2023-04-06T23:38:46.357Z,16.05
2023-04-06T23:41:16.162Z,15.95
2023-04-06T23:43:43.204Z,16.58
2023-04-06T23:46:10.367Z,15.60
2023-04-06T23:48:39.624Z,17.30
2023-04-06T23:51:06.781Z,16.98
2023-04-06T23:53:33.580Z,17.27
2023-04-06T23:56:00.953Z,16.98
2023-04-06T23:58:27.836Z,17.48
